createdAt,value
2018-05-21T00:01:39.746Z,54.00
2018-05-21T00:04:09.057Z,53.90
2018-05-21T00:06:37.966Z,53.90
2018-05-21T00:09:07.243Z,54.00
2018-05-21T00:11:36.921Z,54.20
2018-05-21T00:14:05.851Z,54.00
2018-05-21T00:16:35.504Z,54.50
2018-05-21T00:19:04.398Z,54.00
2018-05-21T00:21:33.278Z,54.00
2018-05-21T00:24:02.169Z,54.00
2018-05-21T00:26:31.475Z,53.90
2018-05-21T00:29:01.231Z,53.90
2018-05-21T00:31:31.140Z,54.70
2018-05-21T00:34:00.651Z,53.90
2018-05-21T00:36:30.319Z,54.80
2018-05-21T00:38:59.648Z,54.00
2018-05-21T00:41:28.536Z,53.90
2018-05-21T00:43:58.201Z,54.00
2018-05-21T00:46:27.089Z,53.90
2018-05-21T00:48:55.979Z,53.90
2018-05-21T00:51:24.875Z,54.00
2018-05-21T00:53:54.231Z,54.00
2018-05-21T00:56:23.891Z,54.50
2018-05-21T00:58:52.783Z,53.90
2018-05-21T01:01:21.939Z,53.90
2018-05-21T01:03:50.825Z,53.90
2018-05-21T01:06:20.103Z,53.80
2018-05-21T01:08:50.137Z,53.80
2018-05-21T01:11:19.201Z,53.90
2018-05-21T01:13:48.087Z,54.00
2018-05-21T01:16:16.966Z,54.00
2018-05-21T01:18:47.379Z,54.60
2018-05-21T01:21:16.665Z,54.00
2018-05-21T01:23:45.804Z,54.00
2018-05-21T01:26:14.908Z,54.00
2018-05-21T01:28:44.573Z,54.50
2018-05-21T01:31:13.464Z,54.00
2018-05-21T01:33:42.351Z,54.10
2018-05-21T01:36:11.679Z,54.10
2018-05-21T01:38:40.579Z,54.10
2018-05-21T01:41:09.878Z,54.00
2018-05-21T01:43:39.269Z,54.10
2018-05-21T01:46:08.985Z,54.10
2018-05-21T01:48:38.899Z,54.70
2018-05-21T01:51:08.550Z,54.60
2018-05-21T01:53:37.448Z,54.10
2018-05-21T01:56:06.495Z,54.10
2018-05-21T01:58:36.143Z,54.70
2018-05-21T02:01:05.042Z,54.00
2018-05-21T02:03:33.931Z,54.20
2018-05-21T02:06:03.592Z,54.10
2018-05-21T02:08:33.313Z,54.70
2018-05-21T02:11:03.117Z,54.20
2018-05-21T02:13:32.428Z,54.20
2018-05-21T02:16:02.100Z,54.20
2018-05-21T02:18:31.020Z,54.20
2018-05-21T02:20:59.999Z,54.20
2018-05-21T02:23:29.451Z,54.20
2018-05-21T02:25:58.315Z,54.20
2018-05-21T02:28:27.199Z,54.20
2018-05-21T02:30:56.127Z,54.20
2018-05-21T02:33:25.026Z,54.20
2018-05-21T02:35:54.664Z,54.20
2018-05-21T02:38:23.571Z,54.20
2018-05-21T02:40:52.646Z,54.20
2018-05-21T02:43:22.347Z,54.80
2018-05-21T02:45:51.224Z,54.20
2018-05-21T02:48:20.452Z,54.20
2018-05-21T02:50:49.758Z,54.20
2018-05-21T02:53:19.750Z,54.20
2018-05-21T02:55:49.470Z,54.80
2018-05-21T02:58:18.339Z,54.20
2018-05-21T03:00:47.650Z,54.20
2018-05-21T03:03:17.292Z,54.80
2018-05-21T03:05:46.575Z,54.20
2018-05-21T03:08:15.544Z,54.20
2018-05-21T03:10:44.724Z,54.20
2018-05-21T03:13:13.612Z,54.20
2018-05-21T03:15:42.900Z,54.20
2018-05-21T03:18:11.797Z,54.30
2018-05-21T03:20:40.684Z,54.20
2018-05-21T03:23:10.109Z,54.20
2018-05-21T03:25:39.764Z,54.80
2018-05-21T03:28:08.670Z,54.20
2018-05-21T03:30:37.977Z,54.20
2018-05-21T03:33:07.809Z,54.20
2018-05-21T03:35:36.799Z,54.20
2018-05-21T03:38:05.705Z,54.20
2018-05-21T03:40:34.604Z,54.20
2018-05-21T03:43:04.114Z,54.20
2018-05-21T03:45:33.417Z,54.20
2018-05-21T03:48:02.727Z,54.20
2018-05-21T03:50:32.025Z,54.20
2018-05-21T03:53:00.962Z,54.20
2018-05-21T03:55:29.846Z,54.20
2018-05-21T03:57:58.729Z,54.20
2018-05-21T04:00:39.728Z,54.20
2018-05-21T04:03:20.352Z,54.20
2018-05-21T04:05:50.909Z,54.20
2018-05-21T04:08:19.816Z,54.20
2018-05-21T04:10:49.467Z,54.80
2018-05-21T04:13:18.362Z,54.20
2018-05-21T04:15:47.730Z,54.20
2018-05-21T04:18:16.626Z,54.20
2018-05-21T04:20:45.647Z,54.20
2018-05-21T04:23:15.401Z,54.20
2018-05-21T04:25:45.044Z,54.70
2018-05-21T04:28:14.021Z,54.20
2018-05-21T04:30:42.912Z,54.20
2018-05-21T04:33:12.196Z,54.20
2018-05-21T04:35:41.852Z,54.70
2018-05-21T04:38:10.782Z,54.20
2018-05-21T04:40:40.485Z,54.80
2018-05-21T04:43:09.335Z,54.20
2018-05-21T04:45:38.479Z,54.20
2018-05-21T04:48:08.394Z,54.70
2018-05-21T04:50:38.311Z,54.70
2018-05-21T04:53:07.974Z,54.10
2018-05-21T04:55:36.861Z,54.20
2018-05-21T04:58:05.759Z,54.10
2018-05-21T05:00:34.649Z,54.20
2018-05-21T05:03:03.784Z,54.10
2018-05-21T05:05:33.439Z,54.70
2018-05-21T05:08:03.841Z,54.10
2018-05-21T05:10:33.508Z,54.10
2018-05-21T05:13:03.391Z,54.10
2018-05-21T05:15:32.273Z,54.10
2018-05-21T05:18:01.931Z,54.10
2018-05-21T05:20:31.621Z,54.70
2018-05-21T05:23:00.507Z,54.10
2018-05-21T05:25:29.407Z,54.10
2018-05-21T05:27:58.800Z,54.10
2018-05-21T05:30:27.894Z,54.10
2018-05-21T05:32:56.780Z,54.20
2018-05-21T05:35:25.659Z,54.20
2018-05-21T05:37:54.552Z,54.20
2018-05-21T05:40:24.197Z,54.10
2018-05-21T05:42:53.088Z,54.20
2018-05-21T05:45:22.466Z,54.70
2018-05-21T05:47:52.128Z,54.70
2018-05-21T05:50:21.020Z,54.20
2018-05-21T05:52:50.017Z,54.10
2018-05-21T05:55:19.219Z,54.10
2018-05-21T05:57:48.108Z,54.10
2018-05-21T06:00:17.004Z,54.10
2018-05-21T06:02:45.909Z,54.10
2018-05-21T06:05:14.895Z,54.10
2018-05-21T06:07:44.163Z,54.10
2018-05-21T06:10:14.486Z,54.60
2018-05-21T06:12:43.380Z,54.10
2018-05-21T06:15:12.267Z,54.10
2018-05-21T06:17:41.163Z,54.10
2018-05-21T06:20:10.061Z,54.10
2018-05-21T06:22:40.075Z,54.00
2018-05-21T06:25:08.990Z,54.50
2018-05-21T06:27:37.992Z,54.00
2018-05-21T06:30:07.647Z,54.50
2018-05-21T06:32:36.895Z,54.10
2018-05-21T06:35:06.806Z,54.60
2018-05-21T06:37:36.078Z,54.10
2018-05-21T06:40:04.979Z,53.90
2018-05-21T06:42:34.091Z,54.00
2018-05-21T06:45:03.999Z,54.50
2018-05-21T06:47:33.929Z,54.80
2018-05-21T06:50:03.821Z,54.50
2018-05-21T06:52:33.009Z,54.50
2018-05-21T06:55:03.436Z,54.50
2018-05-21T06:57:32.342Z,54.00
2018-05-21T07:00:02.258Z,54.30
2018-05-21T07:02:31.912Z,54.40
2018-05-21T07:05:00.797Z,53.90
2018-05-21T07:07:29.688Z,53.80
2018-05-21T07:09:58.577Z,53.80
2018-05-21T07:12:28.236Z,54.00
2018-05-21T07:14:57.891Z,54.40
2018-05-21T07:17:26.821Z,53.80
2018-05-21T07:19:55.839Z,53.70
2018-05-21T07:22:25.499Z,54.30
2018-05-21T07:24:54.415Z,53.70
2018-05-21T07:27:23.318Z,53.70
2018-05-21T07:29:52.322Z,53.60
2018-05-21T07:32:21.379Z,53.70
2018-05-21T07:34:50.388Z,53.70
2018-05-21T07:37:20.296Z,54.30
2018-05-21T07:39:50.192Z,54.40
2018-05-21T07:42:19.405Z,53.70
2018-05-21T07:44:48.456Z,53.60
2018-05-21T07:47:17.899Z,53.70
2018-05-21T07:49:46.776Z,53.60
2018-05-21T07:52:15.710Z,53.80
2018-05-21T07:54:44.805Z,53.70
2018-05-21T07:57:14.084Z,53.70
2018-05-21T07:59:43.758Z,53.70
2018-05-21T08:02:12.659Z,53.70
2018-05-21T08:04:41.556Z,53.60
2018-05-21T08:07:10.854Z,53.70
2018-05-21T08:09:39.837Z,53.60
2018-05-21T08:14:38.757Z,53.70
2018-05-21T08:17:07.634Z,53.60
2018-05-21T08:19:36.635Z,53.60
2018-05-21T08:22:05.536Z,53.60
2018-05-21T08:24:34.411Z,53.70
2018-05-21T08:27:03.309Z,53.60
2018-05-21T08:29:32.960Z,54.20
2018-05-21T08:32:01.850Z,53.70
2018-05-21T08:34:30.736Z,53.70
2018-05-21T08:36:59.624Z,53.70
2018-05-21T08:39:28.514Z,53.70
2018-05-21T08:41:57.403Z,53.70
2018-05-21T08:44:27.872Z,53.70
2018-05-21T08:46:56.764Z,53.70
2018-05-21T08:49:26.071Z,53.70
2018-05-21T08:51:55.724Z,54.20
2018-05-21T08:54:24.679Z,53.70
2018-05-21T08:56:54.336Z,54.30
2018-05-21T08:59:23.293Z,53.70
2018-05-21T09:01:52.195Z,53.70
2018-05-21T09:04:21.487Z,53.60
2018-05-21T09:06:50.380Z,53.70
2018-05-21T09:09:19.260Z,53.70
2018-05-21T09:11:48.323Z,53.70
2018-05-21T09:14:17.212Z,53.70
2018-05-21T09:16:46.519Z,53.70
2018-05-21T09:19:16.916Z,53.70
2018-05-21T09:21:45.948Z,53.80
2018-05-21T09:24:15.885Z,54.20
2018-05-21T09:26:44.774Z,53.70
2018-05-21T09:29:14.053Z,53.70
2018-05-21T09:31:43.711Z,53.80
2018-05-21T09:34:12.607Z,53.70
2018-05-21T09:36:41.508Z,53.70
2018-05-21T09:39:10.408Z,53.70
2018-05-21T09:41:39.919Z,53.70
2018-05-21T09:44:09.584Z,54.50
2018-05-21T09:46:38.926Z,53.80
2018-05-21T09:49:09.536Z,53.70
2018-05-21T09:51:38.422Z,53.80
2018-05-21T09:54:07.329Z,53.80
2018-05-21T09:56:36.588Z,53.80
2018-05-21T09:59:05.480Z,53.80
2018-05-21T10:01:34.407Z,53.80
2018-05-21T10:04:03.407Z,53.80
2018-05-21T10:06:33.065Z,54.40
2018-05-21T10:09:01.959Z,53.80
2018-05-21T10:11:30.852Z,53.80
2018-05-21T10:14:00.189Z,53.70
2018-05-21T10:16:29.476Z,53.70
2018-05-21T10:18:58.373Z,53.80
2018-05-21T10:21:27.266Z,53.80
2018-05-21T10:23:56.932Z,54.40
2018-05-21T10:26:26.591Z,53.80
2018-05-21T10:28:55.989Z,53.80
2018-05-21T10:31:25.639Z,54.30
2018-05-21T10:33:54.994Z,53.80
2018-05-21T10:36:24.648Z,54.40
2018-05-21T10:38:53.532Z,53.80
2018-05-21T10:41:22.432Z,53.80
2018-05-21T10:43:51.812Z,53.80
2018-05-21T10:46:21.439Z,54.30
2018-05-21T10:48:51.180Z,53.80
2018-05-21T10:51:20.144Z,53.80
2018-05-21T10:53:49.050Z,53.70
2018-05-21T10:56:18.550Z,53.90
2018-05-21T10:58:48.129Z,54.40
2018-05-21T11:01:17.487Z,53.90
2018-05-21T11:03:47.148Z,54.50
2018-05-21T11:06:16.053Z,53.90
2018-05-21T11:08:45.336Z,54.00
2018-05-21T11:11:14.237Z,53.90
2018-05-21T11:13:43.129Z,54.00
2018-05-21T11:16:12.052Z,54.00
2018-05-21T11:18:41.713Z,54.50
2018-05-21T11:21:10.735Z,53.90
2018-05-21T11:23:39.632Z,53.90
2018-05-21T11:26:08.534Z,53.90
2018-05-21T11:31:08.660Z,54.50
2018-05-21T11:33:38.321Z,54.70
2018-05-21T11:36:07.257Z,54.00
2018-05-21T11:38:36.939Z,54.60
2018-05-21T11:41:05.855Z,54.00
2018-05-21T11:43:35.505Z,55.20
2018-05-21T11:46:04.402Z,54.00
2018-05-21T11:48:33.303Z,54.00
2018-05-21T11:51:02.205Z,53.90
2018-05-21T11:53:31.095Z,53.90
2018-05-21T11:56:00.104Z,54.00
2018-05-21T11:58:29.340Z,53.90
2018-05-21T12:00:58.288Z,54.00
2018-05-21T12:03:27.571Z,54.00
2018-05-21T12:05:56.786Z,54.00
2018-05-21T12:08:25.661Z,54.00
2018-05-21T12:10:55.007Z,54.20
2018-05-21T12:13:23.896Z,54.00
2018-05-21T12:15:52.858Z,54.10
2018-05-21T12:18:21.742Z,54.20
2018-05-21T12:20:51.239Z,54.10
2018-05-21T12:23:20.468Z,54.10
2018-05-21T12:25:50.127Z,54.70
2018-05-21T12:28:19.015Z,54.20
2018-05-21T12:30:47.924Z,54.10
2018-05-21T12:33:16.815Z,54.20
2018-05-21T12:35:46.491Z,54.30
2018-05-21T12:38:15.852Z,54.20
2018-05-21T12:40:45.505Z,54.70
2018-05-21T12:43:14.448Z,54.20
2018-05-21T12:45:44.352Z,54.80
2018-05-21T12:48:14.015Z,54.20
2018-05-21T12:50:43.052Z,54.30
2018-05-21T12:53:12.726Z,54.80
2018-05-21T12:55:41.618Z,54.30
2018-05-21T12:58:10.504Z,54.40
2018-05-21T13:00:39.417Z,54.30
2018-05-21T13:03:08.308Z,54.30
2018-05-21T13:05:37.197Z,54.40
2018-05-21T13:08:07.049Z,54.40
2018-05-21T13:10:35.934Z,54.40
2018-05-21T13:13:05.063Z,54.50
2018-05-21T13:15:33.952Z,54.40
2018-05-21T13:18:02.846Z,54.40
2018-05-21T13:20:32.132Z,54.40
2018-05-21T13:23:01.506Z,54.50
2018-05-21T13:25:30.402Z,54.40
2018-05-21T13:27:59.279Z,54.40
2018-05-21T13:30:28.531Z,54.40
2018-05-21T13:32:57.420Z,54.50
2018-05-21T13:35:26.318Z,54.50
2018-05-21T13:37:55.202Z,54.50
2018-05-21T13:40:24.097Z,54.70
2018-05-21T13:42:53.004Z,54.60
2018-05-21T13:45:21.889Z,54.60
2018-05-21T13:47:51.557Z,55.30
2018-05-21T13:50:20.450Z,54.70
2018-05-21T13:52:49.884Z,54.80
2018-05-21T13:55:20.305Z,54.70
2018-05-21T13:57:49.422Z,54.60
2018-05-21T14:00:18.407Z,54.60
2018-05-21T14:02:48.076Z,55.20
2018-05-21T14:05:17.112Z,54.50
2018-05-21T14:07:46.773Z,54.60
2018-05-21T14:10:15.688Z,54.60
2018-05-21T14:12:45.337Z,54.50
2018-05-21T14:15:14.988Z,54.50
2018-05-21T14:17:43.889Z,55.00
2018-05-21T14:20:12.777Z,54.50
2018-05-21T14:22:41.890Z,54.60
2018-05-21T14:25:11.575Z,54.70
2018-05-21T14:27:40.565Z,54.60
2018-05-21T14:30:09.859Z,54.70
2018-05-21T14:32:38.748Z,54.60
2018-05-21T14:35:07.660Z,54.60
2018-05-21T14:37:37.316Z,55.40
2018-05-21T14:40:06.217Z,54.70
2018-05-21T14:42:35.116Z,55.20
2018-05-21T14:45:03.996Z,54.90
2018-05-21T14:47:33.324Z,54.80
2018-05-21T14:50:02.332Z,54.90
2018-05-21T14:52:31.994Z,55.40
2018-05-21T14:55:00.956Z,54.80
2018-05-21T14:57:29.887Z,55.30
2018-05-21T14:59:58.781Z,54.80
2018-05-21T15:02:27.745Z,54.80
2018-05-21T15:04:56.897Z,54.80
2018-05-21T15:07:26.808Z,55.30
2018-05-21T15:09:56.469Z,55.20
2018-05-21T15:12:25.407Z,54.60
2018-05-21T15:14:55.342Z,55.20
2018-05-21T15:17:24.269Z,54.60
2018-05-21T15:19:53.191Z,54.50
2018-05-21T15:22:22.276Z,54.40
2018-05-21T15:24:51.934Z,54.40
2018-05-21T15:27:20.824Z,54.40
2018-05-21T15:29:49.716Z,54.90
2018-05-21T15:32:18.623Z,54.30
2018-05-21T15:34:48.261Z,54.10
2018-05-21T15:37:17.161Z,54.20
2018-05-21T15:39:47.077Z,54.00
2018-05-21T15:42:17.004Z,54.60
2018-05-21T15:44:46.120Z,54.00
2018-05-21T15:47:15.269Z,53.90
2018-05-21T15:49:44.179Z,54.00
2018-05-21T15:52:14.837Z,53.90
2018-05-21T15:54:44.530Z,54.50
2018-05-21T15:57:13.368Z,53.90
2018-05-21T15:59:42.261Z,53.90
2018-05-21T16:02:11.387Z,53.80
2018-05-21T16:04:41.060Z,54.30
2018-05-21T16:07:10.391Z,53.70
2018-05-21T16:09:40.063Z,54.30
2018-05-21T16:12:09.392Z,53.80
2018-05-21T16:14:39.044Z,54.20
2018-05-21T16:17:07.936Z,53.80
2018-05-21T16:19:36.848Z,53.70
2018-05-21T16:22:05.783Z,53.70
2018-05-21T16:24:35.436Z,54.20
2018-05-21T16:27:07.499Z,53.50
2018-05-21T16:29:36.745Z,53.60
2018-05-21T16:32:06.413Z,53.90
2018-05-21T16:34:35.346Z,53.30
2018-05-21T16:37:05.017Z,53.40
2018-05-21T16:39:33.943Z,53.30
2018-05-21T16:42:03.601Z,53.90
2018-05-21T16:44:32.497Z,53.20
2018-05-21T16:47:01.385Z,53.20
2018-05-21T16:49:30.405Z,53.20
2018-05-21T16:52:00.228Z,53.10
2018-05-21T16:54:29.892Z,53.50
2018-05-21T16:56:58.784Z,53.10
2018-05-21T16:59:47.881Z,53.20
2018-05-21T17:02:17.168Z,53.20
2018-05-21T17:04:46.058Z,53.30
2018-05-21T17:07:15.013Z,53.80
2018-05-21T17:09:44.048Z,53.10
2018-05-21T17:12:12.955Z,53.10
2018-05-21T17:14:42.610Z,53.80
2018-05-21T17:17:12.040Z,53.10
2018-05-21T17:19:40.933Z,53.00
2018-05-21T17:22:11.590Z,53.10
2018-05-21T17:24:40.860Z,53.20
2018-05-21T17:27:10.593Z,52.90
2018-05-21T17:29:39.480Z,51.70
2018-05-21T17:32:08.373Z,51.00
2018-05-21T17:34:37.351Z,50.70
2018-05-21T17:37:07.004Z,51.00
2018-05-21T17:39:35.957Z,50.20
2018-05-21T17:42:05.620Z,51.00
2018-05-21T17:44:34.633Z,51.40
2018-05-21T17:47:03.524Z,52.00
2018-05-21T17:49:32.425Z,52.50
2018-05-21T17:52:01.438Z,52.70
2018-05-21T17:54:31.106Z,53.20
2018-05-21T17:56:59.998Z,53.10
2018-05-21T17:59:29.283Z,53.00
2018-05-21T18:01:58.621Z,53.10
2018-05-21T18:04:28.284Z,53.90
2018-05-21T18:06:57.242Z,53.40
2018-05-21T18:09:26.157Z,53.30
2018-05-21T18:11:55.423Z,53.20
2018-05-21T18:14:25.088Z,53.60
2018-05-21T18:16:54.083Z,53.10
2018-05-21T18:19:23.516Z,53.30
2018-05-21T18:21:53.181Z,53.60
2018-05-21T18:24:22.127Z,53.00
2018-05-21T18:26:51.150Z,53.10
2018-05-21T18:29:20.158Z,53.40
2018-05-21T18:31:49.827Z,53.50
2018-05-21T18:34:18.720Z,53.20
2018-05-21T18:36:48.370Z,53.60
2018-05-21T18:39:17.252Z,53.50
2018-05-21T18:41:46.136Z,53.20
2018-05-21T18:44:15.044Z,53.40
2018-05-21T18:46:44.697Z,53.70
2018-05-21T18:49:13.589Z,53.70
2018-05-21T18:51:42.966Z,53.90
2018-05-21T18:54:12.615Z,54.30
2018-05-21T18:56:41.517Z,53.90
2018-05-21T18:59:10.666Z,53.80
2018-05-21T19:01:39.730Z,54.00
2018-05-21T19:04:10.250Z,54.00
2018-05-21T19:06:39.189Z,54.00
2018-05-21T19:09:08.284Z,54.00
2018-05-21T19:11:37.176Z,54.00
2018-05-21T19:14:06.086Z,54.10
2018-05-21T19:16:34.982Z,54.10
2018-05-21T19:19:04.225Z,54.10
2018-05-21T19:21:34.140Z,55.20
2018-05-21T19:24:04.052Z,54.70
2018-05-21T19:26:33.152Z,54.10
2018-05-21T19:29:02.808Z,54.60
2018-05-21T19:31:31.691Z,54.10
2018-05-21T19:34:00.843Z,54.20
2018-05-21T19:36:30.508Z,54.70
2018-05-21T19:38:59.753Z,54.30
2018-05-21T19:41:28.645Z,54.20
2018-05-21T19:43:58.321Z,54.30
2018-05-21T19:46:27.219Z,54.30
2018-05-21T19:48:56.241Z,54.80
2018-05-21T19:51:25.529Z,54.30
2018-05-21T19:53:54.824Z,54.30
2018-05-21T19:56:24.477Z,54.90
2018-05-21T19:58:53.373Z,54.30
2018-05-21T20:01:22.268Z,54.30
2018-05-21T20:03:51.564Z,54.30
2018-05-21T20:06:20.452Z,54.30
2018-05-21T20:08:49.796Z,54.80
2018-05-21T20:11:19.477Z,55.00
2018-05-21T20:13:48.561Z,54.40
2018-05-21T20:16:17.800Z,54.40
2018-05-21T20:18:46.906Z,54.30
2018-05-21T20:21:15.787Z,54.30
2018-05-21T20:23:44.756Z,54.30
2018-05-21T20:26:14.033Z,54.20
2018-05-21T20:28:42.921Z,54.20
2018-05-21T20:31:11.807Z,54.20
2018-05-21T20:33:40.717Z,54.10
2018-05-21T20:36:09.922Z,54.20
2018-05-21T20:38:38.826Z,54.10
2018-05-21T20:41:08.483Z,54.70
2018-05-21T20:43:37.377Z,54.20
2018-05-21T20:46:06.373Z,54.10
2018-05-21T20:48:35.264Z,54.20
2018-05-21T20:51:04.166Z,54.10
2018-05-21T20:53:33.490Z,54.10
2018-05-21T20:56:03.158Z,54.70
2018-05-21T20:58:32.103Z,54.10
2018-05-21T21:01:01.774Z,54.20
2018-05-21T21:03:30.665Z,54.20
2018-05-21T21:05:59.547Z,54.10
2018-05-21T21:08:28.439Z,54.10
2018-05-21T21:10:57.331Z,54.10
2018-05-21T21:13:26.208Z,54.10
2018-05-21T21:15:55.425Z,54.00
2018-05-21T21:18:24.534Z,54.00
2018-05-21T21:20:53.412Z,54.10
2018-05-21T21:23:22.323Z,54.10
2018-05-21T21:25:52.126Z,54.60
2018-05-21T21:28:21.784Z,54.60
2018-05-21T21:30:50.800Z,54.00
2018-05-21T21:33:19.931Z,54.10
2018-05-21T21:35:49.599Z,54.00
2018-05-21T21:38:18.509Z,54.10
2018-05-21T21:40:47.391Z,54.10
2018-05-21T21:43:17.048Z,54.10
2018-05-21T21:45:46.183Z,54.10
2018-05-21T21:48:15.075Z,54.10
2018-05-21T21:50:44.294Z,54.10
2018-05-21T21:53:13.953Z,54.70
2018-05-21T21:55:42.847Z,54.60
2018-05-21T21:58:11.749Z,54.10
2018-05-21T22:00:40.666Z,54.10
2018-05-21T22:03:10.308Z,54.00
2018-05-21T22:05:39.200Z,54.10
2018-05-21T22:08:08.362Z,54.10
2018-05-21T22:10:38.014Z,54.60
2018-05-21T22:13:06.997Z,54.00
2018-05-21T22:15:35.880Z,54.10
2018-05-21T22:18:04.764Z,54.00
2018-05-21T22:20:33.648Z,54.60
2018-05-21T22:23:02.603Z,54.10
2018-05-21T22:25:31.604Z,54.10
2018-05-21T22:28:02.005Z,54.10
2018-05-21T22:30:31.008Z,54.10
2018-05-21T22:33:00.305Z,54.60
2018-05-21T22:35:29.187Z,54.60
2018-05-21T22:37:58.388Z,54.10
2018-05-21T22:40:27.285Z,54.10
2018-05-21T22:42:56.173Z,54.10
2018-05-21T22:45:25.057Z,54.10
2018-05-21T22:47:54.273Z,54.10
2018-05-21T22:50:23.930Z,54.70
2018-05-21T22:52:52.868Z,54.10
2018-05-21T22:55:21.980Z,54.10
2018-05-21T22:57:50.874Z,54.10
2018-05-21T23:00:19.838Z,54.10
2018-05-21T23:02:48.838Z,54.10
2018-05-21T23:05:18.870Z,54.10
2018-05-21T23:07:47.756Z,54.10
2018-05-21T23:10:16.661Z,54.20
2018-05-21T23:12:45.624Z,54.10
2018-05-21T23:15:15.276Z,54.70
2018-05-21T23:17:44.172Z,54.10
2018-05-21T23:20:13.087Z,54.20
2018-05-21T23:22:44.873Z,54.20
2018-05-21T23:25:14.783Z,54.70
2018-05-21T23:27:44.433Z,54.70
2018-05-21T23:30:13.328Z,54.20
2018-05-21T23:32:42.418Z,54.20
2018-05-21T23:35:11.311Z,54.20
2018-05-21T23:37:40.197Z,54.70
2018-05-21T23:40:09.088Z,54.20
2018-05-21T23:42:38.750Z,54.20
2018-05-21T23:45:07.941Z,54.20
2018-05-21T23:47:37.601Z,54.80
2018-05-21T23:50:06.632Z,54.20
2018-05-21T23:52:35.921Z,54.20
2018-05-21T23:55:05.139Z,54.20
2018-05-21T23:57:34.908Z,54.80
